Go Pro

Invesco NASDAQ 100 ETF (QQQM) Institutional Ownership

Invesco NASDAQ 100 ETF logo
$296.07 +0.56 (+0.19%)
As of 09/4/2026 04:00 PM Eastern

Institutional Ownership Changes (13F Filings) for Invesco NASDAQ 100 ETF (NASDAQ:QQQM)

Number of
Institutional Buyers
(last 12 months)
922
Total
Institutional Inflows
(last 12 months)
$6.45B
Number of
Institutional Sellers
(last 12 months)
394
Total
Institutional Outflows
(last 12 months)
$3.41B
Get QQQM Insider Trade Alerts

Want to know when executives and insiders are buying or selling Invesco NASDAQ 100 ETF stock? Sign up for InsiderTrades.com's daily newsletter to get the latest insider transactions delivered to your inbox daily.

SMS is currently available in Australia, Belgium, Canada, France, Germany, Ireland, Italy, New Zealand, the Netherlands, Singapore, South Africa, Spain, Switzerland, the United Kingdom, and the United States. By entering your phone number and clicking the sign-up button, you agree to receive periodic text messages from MarketBeat at the phone number you submitted, including texts that may be sent using an automatic telephone dialing system. Message and data rates may apply. Message frequency will vary. Messages will consist of stock alerts, news stories, and partner advertisements/offers. Consent is not a condition of the purchase of any goods or services. Text HELP for help/customer support. Unsubscribe at any time by replying "STOP" to any text message that you receive from MarketBeat or by visiting our mailing preferences page. Read our full terms of service and privacy policy.
Skip Chart & View Institutional Buying and Selling Data

QQQM Institutional Buying and Selling by Quarter

Invesco NASDAQ 100 ETF Major Shareholders & Ownership History

Reporting DateMajor Shareholder NameShares HeldMarket Value% of PortfolioQuarterly Change in SharesOwnership in CompanyDetails
9/4/2026 Parkside Financial Bank & Trust458$139K0.0%+37.5%0.000%
9/2/2026 Second Line Capital LLC9,612$2.91M0.5%+3.0%0.003%
9/2/2026 Kinetic Wealth Investment Advisors LLC59,367$17.99M8.4%N/A0.017%
9/2/2026 Range Advisory LLC4,228$1.28M0.2%+4.7%0.001%
8/27/2026 Corient Private Wealth LP21,079$6.39M0.0%+2.1%0.006%
8/26/2026 Principia Wealth Advisory LLC970,826$294.13M62.4%-0.5%0.283%
8/26/2026 Brown Financial Advisors12,924$3.92M1.4%-6.3%0.004%
8/26/2026 HighTower Advisors LLC643,133$194.85M0.2%+33.9%0.187%
8/25/2026 Advus Financial Partners LLC7,438$2.25M0.5%-4.4%0.002%
8/25/2026 Kirkwood Financial Services168,645$51.14M14.6%N/A0.049%
8/25/2026 Tobias Financial Advisors Inc.153,000$46.35M5.6%-1.5%0.045%
8/23/2026 Ameritas Advisory Services LLC76,453$23.16M0.5%+164.9%0.022%
8/23/2026 Wedmont Private Capital6,518$1.95M0.1%N/A0.002%
8/23/2026 PCG Wealth Advisors LLC27,380$8.30M1.8%+0.7%0.008%
8/23/2026 Members Advisory Group LLC82,427$24.97M7.0%N/A0.024%
8/23/2026 Echo45 Advisors LLC27,426$8.31M4.3%-8.4%0.008%
8/23/2026 HB Wealth Management LLC2,636$799K0.0%+37.7%0.001%
8/23/2026 Mid American Wealth Advisory Group Inc.11,594$3.51M1.3%-4.7%0.003%
8/23/2026 Asset Allocation Strategies LLC91,098$27.60M4.1%-4.6%0.027%
8/22/2026 NI Acquisitions Company LLC2,256$684K0.3%N/A0.001%
8/22/2026 MW Advisory LLC4,655$1.41M0.6%N/A0.001%
8/22/2026 OceanIQ Capital LLC1,370$405K0.2%N/A0.000%
8/22/2026 Highland Investment Advisors LLC992$301K0.1%N/A0.000%
8/22/2026 MOR Wealth Management LLC2,698$817K0.3%+18.9%0.001%
8/22/2026 Three Seasons Wealth LLC10,088$3.06M0.3%+211.6%0.003%
8/22/2026 SMART Wealth LLC3,616$1.10M0.2%+115.0%0.001%
8/22/2026 Comprehensive Financial Planning Inc. PA7,861$2.38M1.3%-3.0%0.002%
8/22/2026 Valued Retirements Inc.8,822$2.67M2.3%+1.3%0.003%
8/22/2026 Investor s Fiduciary Advisor Network LLC1,943$588K0.2%-34.2%0.001%
8/22/2026 Legacy Wealth Managment LLC ID10,250$3.11M1.4%+12.9%0.003%
8/22/2026 Lord & Richards Wealth Management LLC4,927$1.49M1.2%+3.6%0.001%
8/22/2026 Rik Saylor Financial Inc.9,633$2.92M1.8%+21.1%0.003%
8/22/2026 Tudor Financial Inc.1,457$442K0.2%-69.3%0.000%
8/22/2026 NWF Advisory Services Inc.11,721$3.55M0.3%+9.6%0.003%
8/22/2026 TD Waterhouse Canada Inc.5,323$1.59M0.0%+395.2%0.002%
8/21/2026 Kraft Davis & Associates LLC2,246$655K0.1%-1.7%0.001%
8/21/2026 Lowery Thomas LLC43,021$13.03M6.3%-3.1%0.013%
8/21/2026 Carter Financial Group INC.44,132$13.37M7.1%-5.2%0.013%
8/21/2026 Continuum Advisory LLC9,450$2.86M0.2%+35.8%0.003%
8/21/2026 Safeguard Investment Advisory Group LLC29,104$8.82M2.0%+3.1%0.008%
The ultimate IPO unicorn before Labor Day (Ad)

Anthropic is now valued at over $1 trillion, more than every U.S. airline combined and larger than the U.S. defense budget. Its annualized revenue grew 80x in the first quarter, and an IPO could arrive as early as October. For a limited time, investors can access a report detailing how to explore a pre-IPO stake in Anthropic for $29, a 94% discount off the retail price. The package includes a year of Disruptors and Dominators, monthly stock ideas, and four special reports.tc pixel

Claim the discounted Anthropic pre-IPO report before Monday night's deadline.
8/21/2026 Orion Capital Management LLC3,470$1.05M0.3%-3.7%0.001%
8/21/2026 Weitzel Financial Services Inc.9,065$2.66M0.9%+46.0%0.003%
8/21/2026 Round Rock Advisors LLC14,212$4.31M0.6%+0.5%0.004%
8/21/2026 Robbins Farley280$85K0.0%+27.3%0.000%
8/21/2026 Firestone Capital Management3,792$1.15M0.2%+7.8%0.001%
8/21/2026 Atticus Wealth Management LLC6,120$1.85M0.4%+600.2%0.002%
8/21/2026 XML Financial LLC1,573$477K0.0%N/A0.000%
8/21/2026 Beacon Financial Advisory LLC5,152$1.56M0.3%+41.0%0.002%
8/21/2026 Tsfg LLC259$78K0.0%-39.2%0.000%
8/21/2026 Symphony Financial Ltd. Co.851$257K0.0%N/A0.000%
8/21/2026 Secure Asset Management LLC69,722$21.12M3.0%+4.6%0.020%
8/21/2026 Clarus Wealth Advisors38,204$11.19M4.1%N/A0.011%
8/21/2026 Luken Investment Analytics LLC18,487$5.60M1.9%-4.2%0.005%
8/21/2026 Investors Research Corp127$38K0.0%N/A0.000%
8/21/2026 Triumph Capital Management6,208$1.88M0.3%+66.4%0.002%
8/20/2026 Nwam LLC10,174$3.08M0.2%+4.3%0.003%
8/20/2026 Renasant Bank5,181$1.57M1.0%+2.7%0.002%
8/20/2026 Gill Capital Partners LLC29,207$8.85M2.3%+2.9%0.009%
8/20/2026 Jackson Wealth Management LLC3,556$1.08M0.6%-95.3%0.001%
8/20/2026 Rehmann Capital Advisory Group48,169$14.58M0.6%+5.5%0.014%
8/20/2026 Strategic Advisors LLC23,285$7.06M1.3%+4.5%0.007%
8/20/2026 Ancora Advisors LLC106,778$32.35M0.6%+32.3%0.031%
8/20/2026 Fosun International Ltd28,936$8.77M2.0%N/A0.008%
8/20/2026 Sigma Planning Corp39,037$11.83M0.3%+179.4%0.011%
8/20/2026 Two Sigma Securities LLC22,146$6.71M0.6%+744.0%0.006%
8/20/2026 GTS Securities LLC96,625$29.28M0.6%N/A0.028%
8/20/2026 Flputnam Investment Management Co.824$250K0.0%N/A0.000%
8/20/2026 Northwestern Mutual Wealth Management Co.3,868,368$1.17B0.6%+4.7%1.127%
8/20/2026 Wedbush Securities Inc.12,064$3.66M0.1%+9.9%0.004%
8/20/2026 Rational Advisors Inc.151,497$45.90M4.2%-19.2%0.044%
8/20/2026 Sheets Smith Wealth Management1,496$453K0.0%+20.6%0.000%
8/20/2026 Hollencrest Capital Management74,077$22.44M1.5%-83.2%0.022%
8/19/2026 Toth Financial Advisory Corp21,063$6.38M0.6%-2.2%0.006%
8/17/2026 Blue Edge Capital LLC7,778$2.36M0.3%N/A0.002%
8/13/2026 Capital Square LLC1,345$402K0.2%N/A0.000%
8/13/2026 Pinnacle Holdings LLC486$358K0.1%N/A0.000%
8/7/2026 Trust Co. of Vermont666$202K0.0%N/A0.000%
7/25/2026 MBE Wealth Management LLC1,122$340K0.1%+10.3%0.000%
7/25/2026 Prism Advisors Inc.22,047$6.68M1.6%-9.4%0.006%
7/25/2026 Bogart Wealth LLC267,482$81.04M2.8%+0.2%0.079%
7/25/2026 Nelson Capital Management LLC1,074$325K0.0%N/A0.000%
7/24/2026 Whelan Financial213,092$64.56M17.6%0.0%0.063%
7/24/2026 Compass Financial Services Inc59,196$17.94M6.7%+2.6%0.017%
7/24/2026 EverSource Wealth Advisors LLC2,889$875K0.0%-28.2%0.001%
7/24/2026 Nicholas Wealth LLC.4,981$1.51M0.8%+8.2%0.001%
7/24/2026 Fairway Wealth LLC754$229K0.1%+33.2%0.000%
7/24/2026 Taylor Financial Group Inc.3,565$1.08M0.6%+3.8%0.001%
7/24/2026 ORBA Wealth Advisors L.L.C.3,310$1.00M0.9%N/A0.001%
7/24/2026 Rare Wolf Capital LLC10,479$114K0.1%N/A0.003%
7/24/2026 Hunter Associates Investment Management LLC91,944$27.89M3.2%+0.1%0.027%
Rickards Predicts: Trump to buy tiny $2 stock? (Ad)

Jim Rickards believes the Trump administration is about to take a direct stake in a $2 stock sitting on the largest mineral reserve in the country - enough gold for a new Fort Knox, enough copper to rebuild the U.S. electric grid 25 times over. The Trump administration has previously staked positions in MP Materials, Lithium America, Trilogy Metals, and USA Rare Earth - each time shares moved higher. A landmark policy decision expected before November 3 could reprice this stock from $2 to $20 or more within a year.tc pixel

Click here to see why Rickards believes this stock is next
7/24/2026 Miller Wealth Advisors LLC20,000$6.06M0.0%+1,999,900.0%0.006%
7/23/2026 BLVD Private Wealth LLC6,782$2.06M1.5%+6.6%0.002%
7/23/2026 RIA Advisory Group LLC5,513$1.67M0.4%+11.3%0.002%
7/23/2026 6th Street Advisors LLC5,752$1.74M1.0%+4.6%0.002%
7/23/2026 Carlton Hofferkamp & Jenks Wealth Management LLC1,577$458K0.1%+62.2%0.000%
7/23/2026 Sun Group Wealth Partners4,684$1.42M1.0%N/A0.001%
7/23/2026 Financial & Tax Architects LLC6,249$1.89M0.4%+15.3%0.002%
7/23/2026 Cooper Capital Advisors LLC55,549$16.83M7.3%+1.9%0.016%
7/23/2026 SBI Securities Co. Ltd.23,896$7.24M0.2%+41.3%0.007%
7/23/2026 AllGen Financial Advisors Inc.85,045$25.77M5.6%N/A0.025%


QQQM Institutional Ownership - Frequently Asked Questions

During the previous two years, 1,272 institutional investors and hedge funds held shares of Invesco NASDAQ 100 ETF. The most heavily invested institutionals were Invesco Ltd. ($2.95B), Envestnet Asset Management Inc. ($1.85B), First Command Advisory Services Inc. ($1.20B), Northwestern Mutual Wealth Management Co. ($1.17B), Morgan Stanley ($1.10B), Migdal Insurance & Financial Holdings Ltd. ($783.56M), and Raymond James Financial Inc. ($742.83M).Learn more on Invesco NASDAQ 100 ETF's institutional investors.

Of the 1,223 institutional investors that purchased Invesco NASDAQ 100 ETF's stock in the last 24 months, the following investors and hedge funds have bought the highest volume of shares: Strategic Financial Concepts LLC ($6.20M), Invesco Ltd. ($3.70M), Migdal Insurance & Financial Holdings Ltd. ($3.02M), National Mutual Insurance Federation of Agricultural Cooperatives ($2.74M), Raymond James Financial Inc. ($2.66M), Clal Insurance Enterprises Holdings Ltd ($2.41M), and Vantagepoint Investment Advisers LLC ($2.18M).

Institutional investors have bought a total of 25,553,450 shares in the last 24 months. This purchase volume represents approximately $6.45B in transactions.

Of the 394 institutional investors that sold Invesco NASDAQ 100 ETF's stock in the last 24 months, the following investors and hedge funds have sold the highest volume of shares: Northwestern Mutual Wealth Management Co. ($3.51M), Clal Insurance Enterprises Holdings Ltd ($2.38M), Bank of Nova Scotia ($721.32K), Mizuho Bank Ltd. ($715K), Morgan Stanley ($453.55K), National Mutual Insurance Federation of Agricultural Cooperatives ($450K), and Hollencrest Capital Management ($368.57K).

Institutional investors have sold a total of 13,586,684 shares in the last 24 months. This volume of shares sold represents approximately $3.41B in transactions.



Institutional ownership data for NASDAQ:QQQM is compiled from quarterly 13F filings submitted to the U.S. Securities and Exchange Commission (SEC), with the most recent received on 9/4/2026. New 13F filings are added each quarter as they're published.
From Our Partners